Time;durP1;ratioP1;P1;durP2;ratioP2;P2;SDS_P1;SDS_P2;PMS_P1;PMS_P2;Temp;Humidity;BMP_temperature;BMP_pressure;BME280_temperature;BME280_humidity;BME280_pressure;Samples;Min_cycle;Max_cycle;Signal;HPM_P1;HPM_P2
2022/01/21 05:00:46;;;;;;;0.30;0.30;;;;;;;0.90;100.00;94896.72;5900443;23;20062;-75
2022/01/21 05:03:12;;;;;;;0.32;0.30;;;;;;;0.95;100.00;94898.00;4959270;28;20507;-75
2022/01/21 05:05:38;;;;;;;3.38;2.78;;;;;;;0.96;100.00;94891.97;4985538;28;20109;-75
2022/01/21 05:08:07;;;;;;;8.50;7.20;;;;;;;0.94;100.00;94893.81;4968800;28;20073;-75
2022/01/21 05:10:34;;;;;;;5.27;4.23;;;;;;;1.01;100.00;94899.28;4969066;28;20027;-75
2022/01/21 05:13:00;;;;;;;6.05;5.30;;;;;;;0.98;100.00;94904.59;4969267;28;20277;-73
2022/01/21 05:15:44;;;;;;;3.42;2.95;;;;;;;0.91;100.00;94908.53;4970489;28;20026;-75
2022/01/21 05:18:09;;;;;;;4.72;4.38;;;;;;;0.97;100.00;94910.63;4968694;28;20034;-75
2022/01/21 05:20:35;;;;;;;5.68;5.07;;;;;;;0.93;100.00;94911.78;4967633;28;20097;-75
2022/01/21 05:23:00;;;;;;;3.13;2.92;;;;;;;0.96;100.00;94921.75;4968575;28;20042;-75
2022/01/21 05:25:26;;;;;;;3.25;3.03;;;;;;;0.81;100.00;94923.69;4969505;28;20023;-75
2022/01/21 05:27:53;;;;;;;2.90;2.70;;;;;;;0.93;100.00;94916.88;4965474;28;20034;-74
2022/01/21 05:30:20;;;;;;;1.15;1.05;;;;;;;0.96;100.00;94911.56;4949433;28;20555;-74
2022/01/21 05:32:45;;;;;;;1.63;1.52;;;;;;;0.97;100.00;94918.25;4955440;28;20025;-74
2022/01/21 05:35:11;;;;;;;1.10;1.00;;;;;;;0.97;100.00;94924.19;4984064;28;20027;-74
2022/01/21 05:37:37;;;;;;;2.20;1.30;;;;;;;0.93;100.00;94929.63;4985065;28;20050;-74
2022/01/21 05:40:05;;;;;;;1.50;1.40;;;;;;;0.92;100.00;94938.19;4969238;28;20085;-75
2022/01/21 05:42:33;;;;;;;1.63;1.52;;;;;;;0.92;100.00;94941.56;4967530;28;20125;-75
2022/01/21 05:47:25;;;;;;;2.10;1.90;;;;;;;0.95;100.00;94953.25;4980118;28;20110;-75
2022/01/21 05:49:51;;;;;;;2.13;1.92;;;;;;;0.92;100.00;94954.31;4969626;28;20201;-75
2022/01/21 05:52:18;;;;;;;2.30;2.10;;;;;;;0.91;100.00;94955.22;4968333;28;20038;-76
2022/01/21 05:54:46;;;;;;;2.60;2.25;;;;;;;0.95;100.00;94955.81;4968971;28;20121;-76
2022/01/21 05:57:16;;;;;;;4.40;3.78;;;;;;;0.91;100.00;94974.78;4969891;28;20054;-76
2022/01/21 05:59:41;;;;;;;3.00;2.00;;;;;;;0.90;100.00;94983.38;4967990;28;20432;-75
2022/01/21 06:02:08;;;;;;;2.30;1.40;;;;;;;0.77;100.00;94977.56;4982780;28;20148;-76
2022/01/21 06:04:34;;;;;;;2.50;1.83;;;;;;;0.86;100.00;94982.78;4965638;28;20030;-76
2022/01/21 06:07:00;;;;;;;2.55;2.35;;;;;;;0.81;100.00;94974.66;4982416;28;20109;-75
2022/01/21 06:09:29;;;;;;;2.03;1.85;;;;;;;0.85;100.00;94976.06;4981363;28;20042;-76
2022/01/21 06:11:55;;;;;;;2.30;2.10;;;;;;;0.79;100.00;94983.34;4964376;28;20030;-76
2022/01/21 06:14:25;;;;;;;5.35;3.63;;;;;;;0.81;100.00;94973.84;4967213;28;20423;-76
2022/01/21 06:16:51;;;;;;;3.65;3.30;;;;;;;0.88;100.00;94985.22;4964941;28;20023;-76
2022/01/21 06:19:17;;;;;;;3.03;2.58;;;;;;;0.67;100.00;94984.22;4968111;28;20113;-76
2022/01/21 06:21:42;;;;;;;3.63;3.33;;;;;;;0.77;100.00;95000.47;4981786;28;20027;-77
2022/01/21 06:24:08;;;;;;;1.80;1.50;;;;;;;0.62;100.00;95004.94;4967950;28;20038;-77
2022/01/21 06:26:35;;;;;;;1.45;1.05;;;;;;;0.59;100.00;94996.69;4964765;28;20033;-77
2022/01/21 06:29:01;;;;;;;1.10;1.00;;;;;;;0.48;100.00;95011.00;4968204;28;20053;-77
2022/01/21 06:31:26;;;;;;;1.42;1.08;;;;;;;0.59;100.00;95014.53;4967251;28;20476;-76
2022/01/21 06:33:52;;;;;;;0.95;0.77;;;;;;;0.61;100.00;95015.25;4967243;28;20063;-77
2022/01/21 06:36:17;;;;;;;0.45;0.45;;;;;;;0.52;100.00;95025.16;4982003;28;20031;-77
2022/01/21 06:38:43;;;;;;;0.90;0.70;;;;;;;0.33;100.00;95019.72;4961712;28;20027;-76
2022/01/21 06:41:08;;;;;;;0.65;0.65;;;;;;;0.36;100.00;95024.59;4969197;28;20031;-75
2022/01/21 06:43:34;;;;;;;2.28;1.90;;;;;;;0.41;100.00;95037.84;4968406;28;20530;-76
2022/01/21 06:45:59;;;;;;;4.45;3.72;;;;;;;0.27;100.00;95025.25;4969448;28;20026;-76
2022/01/21 06:48:25;;;;;;;5.30;4.15;;;;;;;0.26;100.00;95026.16;4970029;28;20416;-76
2022/01/21 06:50:51;;;;;;;3.03;2.72;;;;;;;0.25;100.00;95022.00;4970012;28;20023;-75
2022/01/21 06:53:16;;;;;;;3.33;1.80;;;;;;;0.21;100.00;95020.59;4952946;28;20038;-75
2022/01/21 06:55:42;;;;;;;1.42;1.20;;;;;;;0.25;100.00;95029.66;4969425;28;20023;-75
2022/01/21 06:58:07;;;;;;;0.95;0.68;;;;;;;0.28;100.00;95033.72;4953409;28;20522;-76
2022/01/21 07:00:33;;;;;;;0.98;0.60;;;;;;;0.17;100.00;95024.25;4951234;28;20030;-75
2022/01/21 07:02:58;;;;;;;1.05;0.60;;;;;;;0.06;100.00;95024.22;4968863;28;20043;-75
2022/01/21 07:05:25;;;;;;;1.30;0.80;;;;;;;0.14;100.00;95039.75;4968007;28;20109;-77
2022/01/21 07:07:51;;;;;;;1.67;1.42;;;;;;;0.13;100.00;95043.19;4966245;28;20047;-75
2022/01/21 07:10:17;;;;;;;0.68;0.52;;;;;;;0.24;100.00;95043.28;4969122;28;20089;-76
2022/01/21 07:12:44;;;;;;;0.40;0.40;;;;;;;0.26;100.00;95038.88;4968850;28;20034;-76
2022/01/21 07:15:15;;;;;;;0.60;0.30;;;;;;;0.17;100.00;95044.63;4962673;28;20442;-73
2022/01/21 07:17:42;;;;;;;0.30;0.30;;;;;;;0.23;100.00;95051.84;4966674;28;20031;-76
2022/01/21 07:20:07;;;;;;;0.45;0.40;;;;;;;0.13;100.00;95038.13;4952255;28;20019;-76
2022/01/21 07:22:33;;;;;;;0.98;0.50;;;;;;;0.13;100.00;95048.28;4968528;28;20054;-76
2022/01/21 07:24:58;;;;;;;1.25;1.00;;;;;;;0.14;100.00;95055.03;4968707;28;20043;-76
2022/01/21 07:27:24;;;;;;;1.35;0.80;;;;;;;0.22;100.00;95057.06;4955604;28;20742;-76
2022/01/21 07:29:49;;;;;;;2.63;0.80;;;;;;;0.20;100.00;95043.59;4968578;28;20043;-76
2022/01/21 07:32:15;;;;;;;2.08;1.40;;;;;;;0.09;100.00;95039.25;4972823;28;20612;-77
2022/01/21 07:34:40;;;;;;;1.55;1.20;;;;;;;0.14;100.00;95044.03;4961157;28;20023;-75
2022/01/21 07:37:06;;;;;;;1.70;1.17;;;;;;;0.09;100.00;95056.25;4967132;28;20102;-76
2022/01/21 07:39:31;;;;;;;1.90;1.13;;;;;;;0.00;100.00;95062.81;4959951;28;20018;-77
2022/01/21 07:41:57;;;;;;;1.63;1.30;;;;;;;-0.18;100.00;95053.84;4966943;28;20038;-76
2022/01/21 07:44:23;;;;;;;2.08;1.50;;;;;;;0.09;100.00;95061.34;4967852;28;20031;-77
2022/01/21 07:46:48;;;;;;;3.15;1.63;;;;;;;0.07;100.00;95043.63;4969912;28;20078;-77
2022/01/21 07:49:16;;;;;;;3.45;1.55;;;;;;;0.04;100.00;95043.84;4968411;28;20035;-77
2022/01/21 07:51:43;;;;;;;4.03;1.20;;;;;;;0.11;100.00;95049.31;4966484;28;20034;-77
2022/01/21 07:54:09;;;;;;;1.30;1.20;;;;;;;0.20;100.00;95041.06;4981372;28;20454;-76
2022/01/21 07:56:35;;;;;;;1.98;1.45;;;;;;;0.26;100.00;95054.16;4959767;28;20038;-77
2022/01/21 07:59:04;;;;;;;1.48;1.25;;;;;;;0.28;100.00;95054.06;4968207;28;20030;-77
2022/01/21 08:01:30;;;;;;;2.53;1.70;;;;;;;0.16;100.00;95050.63;4967094;28;20050;-76
2022/01/21 08:03:55;;;;;;;2.67;1.63;;;;;;;0.27;100.00;95032.88;4970316;28;20033;-77
2022/01/21 08:06:22;;;;;;;1.90;1.30;;;;;;;0.32;100.00;95063.13;4967801;28;20042;-76
2022/01/21 08:08:47;;;;;;;1.90;1.35;;;;;;;0.15;100.00;95054.13;4984533;28;20031;-77
2022/01/21 08:11:13;;;;;;;1.40;0.70;;;;;;;0.11;100.00;95056.97;4969419;28;20031;-74
2022/01/21 08:13:38;;;;;;;0.90;0.60;;;;;;;0.40;100.00;95051.50;4967919;28;20038;-73
2022/01/21 08:16:04;;;;;;;1.75;1.10;;;;;;;0.26;100.00;95066.91;4961896;28;20031;-74
2022/01/21 08:18:29;;;;;;;1.77;1.65;;;;;;;0.27;100.00;95075.34;4956434;28;20054;-75
2022/01/21 08:20:55;;;;;;;1.77;1.08;;;;;;;0.31;100.00;95079.31;4967662;28;20447;-77
2022/01/21 08:23:20;;;;;;;2.45;0.70;;;;;;;0.09;100.00;95087.63;4950985;28;20023;-76
2022/01/21 08:25:46;;;;;;;0.93;0.40;;;;;;;0.14;100.00;95094.94;4983471;28;20508;-76
2022/01/21 08:28:12;;;;;;;1.75;0.38;;;;;;;0.04;100.00;95099.84;4949040;28;20065;-76
2022/01/21 08:30:38;;;;;;;1.70;0.50;;;;;;;0.06;100.00;95095.47;4967529;28;20051;-76
2022/01/21 08:33:04;;;;;;;0.77;0.50;;;;;;;0.31;100.00;95090.31;4968501;28;20070;-77
2022/01/21 08:35:30;;;;;;;1.80;0.57;;;;;;;0.43;100.00;95102.22;4967036;28;20586;-77
2022/01/21 08:37:55;;;;;;;3.33;1.05;;;;;;;0.27;100.00;95101.63;4968640;28;20030;-76
2022/01/21 08:40:22;;;;;;;1.80;1.20;;;;;;;0.28;100.00;95088.00;4967276;28;20022;-76
2022/01/21 08:42:48;;;;;;;2.30;1.27;;;;;;;0.35;100.00;95086.63;4969415;28;20411;-76
2022/01/21 08:45:14;;;;;;;1.80;1.20;;;;;;;0.69;100.00;95086.84;4968836;28;20031;-76
2022/01/21 08:47:41;;;;;;;1.20;0.80;;;;;;;0.47;100.00;95097.72;4983815;28;20059;-76
2022/01/21 08:50:09;;;;;;;3.53;0.52;;;;;;;0.43;100.00;95106.47;4968815;28;20037;-77
2022/01/21 08:52:37;;;;;;;2.28;0.77;;;;;;;0.32;100.00;95107.22;4950824;28;20033;-77
2022/01/21 08:55:05;;;;;;;2.20;0.82;;;;;;;0.27;100.00;95101.63;4968535;28;20121;-77
2022/01/21 08:57:32;;;;;;;3.00;1.75;;;;;;;0.49;100.00;95094.13;4968524;28;20023;-77
2022/01/21 08:59:58;;;;;;;5.25;2.80;;;;;;;0.66;100.00;95084.50;4983563;28;20093;-77
2022/01/21 09:02:24;;;;;;;3.85;2.50;;;;;;;0.52;100.00;95065.09;4968216;28;20508;-76
2022/01/21 09:04:49;;;;;;;3.47;2.78;;;;;;;0.63;100.00;95067.72;4968735;28;20031;-77
2022/01/21 09:07:15;;;;;;;4.05;3.33;;;;;;;0.75;100.00;95077.03;4968528;28;20073;-75
2022/01/21 09:09:40;;;;;;;3.97;3.58;;;;;;;0.71;100.00;95080.69;4968317;28;20472;-76
2022/01/21 09:12:06;;;;;;;9.82;5.45;;;;;;;1.02;100.00;95061.50;4969060;28;20030;-75
2022/01/21 09:14:33;;;;;;;5.38;4.22;;;;;;;1.12;100.00;95082.88;4967651;28;20118;-77
2022/01/21 09:16:59;;;;;;;4.32;3.92;;;;;;;0.90;100.00;95081.03;4969647;28;20124;-76
2022/01/21 09:19:25;;;;;;;4.75;3.75;;;;;;;1.50;100.00;95080.06;4968482;28;20066;-77
2022/01/21 09:21:55;;;;;;;3.25;2.70;;;;;;;1.49;100.00;95069.03;4969790;28;20031;-77
2022/01/21 09:24:20;;;;;;;4.30;2.78;;;;;;;1.17;100.00;95073.13;4966579;28;20045;-76
2022/01/21 09:26:46;;;;;;;3.92;1.60;;;;;;;1.35;100.00;95073.56;4983278;28;20499;-78
2022/01/21 09:29:12;;;;;;;2.08;1.90;;;;;;;0.85;100.00;95042.31;4966561;28;20019;-77
2022/01/21 09:31:38;;;;;;;3.28;1.50;;;;;;;1.34;100.00;95047.22;4977772;28;20786;-78
2022/01/21 09:34:05;;;;;;;4.30;2.20;;;;;;;1.25;100.00;95042.00;4966756;28;20077;-76
2022/01/21 09:36:32;;;;;;;2.78;2.13;;;;;;;1.61;100.00;95046.13;4958159;28;20026;-77
2022/01/21 09:38:57;;;;;;;3.45;3.08;;;;;;;1.42;100.00;95033.88;4971938;28;20030;-75
2022/01/21 09:41:23;;;;;;;3.00;2.17;;;;;;;1.43;100.00;95028.69;4966188;28;20093;-77
2022/01/21 09:43:50;;;;;;;2.63;1.98;;;;;;;1.72;100.00;95026.50;4966422;28;20015;-76
2022/01/21 09:46:16;;;;;;;6.22;2.45;;;;;;;2.16;100.00;95006.97;4979351;28;20093;-77
2022/01/21 09:48:54;;;;;;;6.80;4.30;;;;;;;1.82;100.00;95003.66;4973306;28;20026;-76
2022/01/21 09:51:20;;;;;;;11.07;6.25;;;;;;;1.82;100.00;95001.09;4968690;28;20097;-76
2022/01/21 09:53:46;;;;;;;6.65;5.35;;;;;;;1.83;100.00;95000.19;4958293;28;20030;-75
2022/01/21 09:56:14;;;;;;;7.82;3.78;;;;;;;2.05;100.00;95007.81;4954603;28;20034;-76
2022/01/21 09:58:45;;;;;;;6.20;3.60;;;;;;;1.63;100.00;95006.78;4967357;28;20050;-76
2022/01/21 10:01:10;;;;;;;4.53;3.13;;;;;;;1.68;100.00;95001.31;4957231;28;20043;-76
2022/01/21 10:03:36;;;;;;;5.28;2.90;;;;;;;1.97;100.00;95002.47;4960670;28;20042;-76
2022/01/21 10:06:03;;;;;;;5.55;3.33;;;;;;;2.04;100.00;95007.00;4955245;28;20015;-76
2022/01/21 10:08:28;;;;;;;5.03;4.03;;;;;;;1.95;100.00;95002.59;4957057;28;20094;-76
2022/01/21 10:10:54;;;;;;;4.13;3.30;;;;;;;1.89;100.00;94999.72;4956582;28;20451;-76
2022/01/21 10:13:20;;;;;;;4.88;3.40;;;;;;;1.98;100.00;94999.00;4974625;28;20118;-75
2022/01/21 10:15:47;;;;;;;8.57;3.60;;;;;;;1.74;100.00;94996.56;4962675;28;20047;-76
2022/01/21 10:18:15;;;;;;;4.15;3.00;;;;;;;1.56;100.00;94996.22;4963464;28;20126;-75
2022/01/21 10:20:57;;;;;;;5.35;2.20;;;;;;;2.01;100.00;94986.81;4964549;28;20023;-76
2022/01/21 10:23:23;;;;;;;2.30;1.90;;;;;;;1.95;100.00;94983.91;4962778;28;20504;-77
2022/01/21 10:26:05;;;;;;;6.30;2.80;;;;;;;1.82;100.00;94983.22;4980302;28;20041;-76
2022/01/21 10:28:31;;;;;;;4.32;3.75;;;;;;;2.19;100.00;94970.97;4975204;28;20022;-76
2022/01/21 10:31:04;;;;;;;5.57;3.67;;;;;;;2.34;100.00;94975.72;4960469;28;20572;-76
2022/01/21 10:33:30;;;;;;;7.18;2.65;;;;;;;2.37;99.69;94977.22;4944778;28;20059;-76
2022/01/21 10:36:08;;;;;;;6.22;1.90;;;;;;;2.58;98.33;94975.50;4962813;28;20473;-77
2022/01/21 10:38:49;;;;;;;5.70;1.52;;;;;;;2.57;98.16;94968.75;4964900;28;20026;-77
2022/01/21 10:41:17;;;;;;;5.53;1.10;;;;;;;2.56;95.78;94975.63;4953837;28;20110;-75
2022/01/21 10:43:43;;;;;;;1.83;1.10;;;;;;;2.67;95.77;94952.56;4954120;28;20030;-77
2022/01/21 10:46:15;;;;;;;2.67;1.42;;;;;;;2.98;95.86;94966.28;4952956;28;20046;-77
2022/01/21 10:49:02;;;;;;;2.08;1.40;;;;;;;3.09;95.84;94970.50;4961182;28;20034;-76
2022/01/21 10:51:30;;;;;;;2.53;1.13;;;;;;;2.88;96.15;94960.28;4961713;28;20042;-77
2022/01/21 10:53:56;;;;;;;2.50;0.80;;;;;;;2.75;96.84;94963.94;4974224;28;20030;-77
2022/01/21 10:56:23;;;;;;;1.52;1.15;;;;;;;2.45;98.11;94965.44;4976425;28;20073;-76
2022/01/21 10:58:52;;;;;;;3.03;2.35;;;;;;;2.74;97.63;94949.53;4960754;28;20062;-76
2022/01/21 11:01:22;;;;;;;5.60;2.57;;;;;;;2.83;98.58;94957.25;4959733;28;20945;-75
2022/01/21 11:04:08;;;;;;;4.60;3.67;;;;;;;2.83;99.14;94951.34;4953723;28;20019;-76
2022/01/21 11:06:44;;;;;;;6.10;4.93;;;;;;;2.86;100.00;94951.13;4977200;28;20052;-76
2022/01/21 11:09:20;;;;;;;6.22;5.03;;;;;;;2.95;100.00;94953.72;4968934;28;20113;-76
2022/01/21 11:11:48;;;;;;;9.45;6.57;;;;;;;2.59;100.00;94943.91;4967714;28;20535;-76
2022/01/21 11:14:18;;;;;;;9.82;6.78;;;;;;;2.52;100.00;94932.56;4973380;28;20496;-76
2022/01/21 11:16:46;;;;;;;9.32;7.22;;;;;;;2.38;100.00;94938.75;4955475;28;20550;-77
2022/01/21 11:19:24;;;;;;;9.45;7.72;;;;;;;2.38;100.00;94930.28;4972008;28;20023;-76
2022/01/21 11:21:53;;;;;;;8.13;7.32;;;;;;;2.37;100.00;94928.66;4965869;28;20636;-77
2022/01/21 11:24:21;;;;;;;7.93;7.13;;;;;;;2.06;100.00;94943.84;4962075;28;20345;-77
2022/01/21 11:27:13;;;;;;;8.98;6.20;;;;;;;2.35;100.00;94931.34;4972155;28;20340;-76
2022/01/21 11:29:39;;;;;;;7.15;5.18;;;;;;;2.16;100.00;94920.94;4968910;28;20034;-77
2022/01/21 11:32:05;;;;;;;6.60;5.75;;;;;;;2.27;100.00;94923.47;4971846;28;20031;-76
2022/01/21 11:34:31;;;;;;;7.47;4.88;;;;;;;2.36;100.00;94921.94;4963202;28;20670;-77
2022/01/21 11:36:58;;;;;;;7.90;3.95;;;;;;;2.41;100.00;94918.06;4960887;28;20500;-77
2022/01/21 11:39:24;;;;;;;5.07;3.83;;;;;;;2.10;100.00;94924.81;4946596;28;20242;-77
2022/01/21 11:41:51;;;;;;;5.18;3.55;;;;;;;2.18;100.00;94924.22;4961215;28;20045;-76
2022/01/21 11:44:19;;;;;;;4.40;3.40;;;;;;;2.38;100.00;94933.66;4979040;28;20030;-77
2022/01/21 11:49:55;;;;;;;4.72;3.08;;;;;;;2.26;100.00;94926.13;4933296;28;20101;-76
2022/01/21 11:52:21;;;;;;;3.47;2.65;;;;;;;2.16;100.00;94935.47;4965027;28;20093;-76
2022/01/21 11:54:48;;;;;;;3.38;2.83;;;;;;;1.91;100.00;94937.38;4962923;28;20031;-77
2022/01/21 11:57:15;;;;;;;3.95;3.50;;;;;;;1.76;100.00;94943.69;4958421;28;20034;-75
2022/01/21 11:59:58;;;;;;;3.88;2.70;;;;;;;2.07;100.00;94922.50;4964575;28;20034;-77
2022/01/21 12:02:26;;;;;;;3.50;3.20;;;;;;;2.09;100.00;94935.13;4997959;28;20039;-77
2022/01/21 12:05:09;;;;;;;5.57;3.45;;;;;;;1.92;100.00;94938.19;4958198;28;20027;-77
2022/01/21 12:07:34;;;;;;;5.13;3.85;;;;;;;2.01;100.00;94933.19;4945525;28;20981;-77
2022/01/21 12:10:21;;;;;;;5.10;3.20;;;;;;;1.79;100.00;94932.41;4963468;28;20042;-78
2022/01/21 12:13:05;;;;;;;4.50;3.55;;;;;;;1.69;100.00;94926.41;4961658;28;20038;-77
2022/01/21 12:15:46;;;;;;;6.57;4.18;;;;;;;2.12;100.00;94940.00;4975883;28;20519;-76
2022/01/21 12:20:54;;;;;;;4.43;4.00;;;;;;;2.15;99.75;94932.13;4962999;28;20035;-76
2022/01/21 12:23:22;;;;;;;7.95;4.18;;;;;;;1.70;100.00;94918.63;4953935;28;20031;-76
2022/01/21 12:26:19;;;;;;;4.07;3.67;;;;;;;1.75;100.00;94925.91;4961742;28;20062;-75
2022/01/21 12:28:59;;;;;;;6.07;3.90;;;;;;;1.23;100.00;94919.69;4961461;28;20057;-76
2022/01/21 12:31:50;;;;;;;5.95;4.60;;;;;;;1.33;100.00;94925.72;4960001;28;20034;-76
2022/01/21 12:34:16;;;;;;;6.47;4.95;;;;;;;1.49;100.00;94921.06;4973575;28;20039;-76
2022/01/21 12:36:48;;;;;;;7.95;5.10;;;;;;;1.39;100.00;94916.78;4959569;28;20086;-75
2022/01/21 12:39:40;;;;;;;5.13;4.57;;;;;;;1.59;100.00;94916.91;4953069;28;20034;-76
2022/01/21 12:42:32;;;;;;;5.38;4.03;;;;;;;1.54;100.00;94913.88;4961989;28;20022;-76
2022/01/21 12:45:17;;;;;;;6.28;4.40;;;;;;;1.15;100.00;94916.09;4953284;28;20142;-76
2022/01/21 12:47:45;;;;;;;6.00;4.20;;;;;;;1.16;100.00;94910.06;4930835;28;20027;-74
2022/01/21 12:50:24;;;;;;;4.95;3.92;;;;;;;1.13;100.00;94905.19;4952956;28;21563;-75
2022/01/21 12:52:53;;;;;;;6.30;4.07;;;;;;;1.39;100.00;94909.13;4950945;28;20114;-75
2022/01/21 12:55:57;;;;;;;4.90;3.75;;;;;;;1.44;100.00;94900.22;4948658;28;21042;-75
2022/01/21 12:58:45;;;;;;;5.47;3.80;;;;;;;1.45;100.00;94898.47;4955067;28;20070;-75
2022/01/21 13:01:12;;;;;;;7.13;4.28;;;;;;;1.36;100.00;94910.19;4951692;28;20117;-75
2022/01/21 13:03:44;;;;;;;4.60;4.07;;;;;;;1.43;100.00;94911.34;4950334;28;20031;-76
2022/01/21 13:06:19;;;;;;;5.55;3.90;;;;;;;1.32;99.72;94925.81;4956058;28;20027;-75
2022/01/21 13:09:08;;;;;;;5.72;3.92;;;;;;;1.10;100.00;94924.06;4955492;28;20031;-75
2022/01/21 13:11:38;;;;;;;5.93;3.88;;;;;;;1.02;100.00;94922.13;4954783;28;20523;-75
2022/01/21 13:17:00;;;;;;;6.15;4.78;;;;;;;1.20;100.00;94932.66;4956479;28;19922;-76
2022/01/21 13:19:30;;;;;;;5.80;4.70;;;;;;;0.94;100.00;94936.34;4958701;28;20093;-75
2022/01/21 13:21:55;;;;;;;5.97;5.40;;;;;;;1.40;100.00;94931.97;4957156;28;20555;-75
2022/01/21 13:24:31;;;;;;;9.35;6.18;;;;;;;1.26;100.00;94932.19;4956394;28;20113;-75
2022/01/21 13:26:58;;;;;;;8.43;6.28;;;;;;;0.91;100.00;94941.66;4950627;28;20125;-76
2022/01/21 13:29:30;;;;;;;5.32;4.57;;;;;;;1.16;100.00;94933.00;4951411;28;20131;-76
2022/01/21 13:31:57;;;;;;;8.43;6.50;;;;;;;0.85;100.00;94939.56;4971992;28;20041;-76
2022/01/21 13:34:30;;;;;;;7.07;5.57;;;;;;;0.99;100.00;94939.38;4954380;28;20496;-75
2022/01/21 13:37:06;;;;;;;10.07;6.85;;;;;;;1.03;100.00;94933.91;4969470;28;20031;-77
2022/01/21 13:39:33;;;;;;;9.73;7.40;;;;;;;0.87;100.00;94937.72;4970308;28;20374;-76
2022/01/21 13:42:06;;;;;;;10.88;6.85;;;;;;;0.93;100.00;94942.38;4939963;28;20496;-77
2022/01/21 13:44:53;;;;;;;10.18;7.40;;;;;;;0.57;100.00;94945.06;4956960;28;20033;-76
2022/01/21 13:47:44;;;;;;;6.80;5.93;;;;;;;0.50;100.00;94955.69;4944195;28;20047;-76
2022/01/21 13:50:22;;;;;;;7.60;5.07;;;;;;;0.67;100.00;94946.84;4959461;28;20531;-77
2022/01/21 13:52:58;;;;;;;6.72;5.45;;;;;;;0.39;100.00;94945.44;4962141;28;20101;-76
2022/01/21 13:55:24;;;;;;;6.82;4.80;;;;;;;0.38;100.00;94948.94;4959504;28;20103;-76
2022/01/21 13:57:50;;;;;;;8.02;4.65;;;;;;;0.30;100.00;94933.38;4954289;28;20213;-75
2022/01/21 14:00:31;;;;;;;7.75;5.85;;;;;;;0.46;100.00;94938.19;4975302;28;20027;-76
2022/01/21 14:03:01;;;;;;;13.63;8.77;;;;;;;0.46;100.00;94936.44;4959312;28;20558;-77
2022/01/21 14:05:48;;;;;;;16.67;8.93;;;;;;;-0.17;100.00;94923.19;4960243;28;20029;-76
2022/01/21 14:08:18;;;;;;;8.55;5.18;;;;;;;0.06;100.00;94934.31;4974923;28;20043;-76
2022/01/21 14:10:43;;;;;;;9.85;5.60;;;;;;;0.02;100.00;94943.06;4954936;28;20027;-77
2022/01/21 14:13:10;;;;;;;6.70;5.05;;;;;;;-0.11;100.00;94941.41;4973670;28;20593;-77
2022/01/21 14:15:35;;;;;;;6.60;4.22;;;;;;;-0.03;100.00;94935.75;4959997;28;20031;-78
2022/01/21 14:18:01;;;;;;;6.72;4.35;;;;;;;-0.37;100.00;94928.84;4936310;28;20493;-78
2022/01/21 14:20:31;;;;;;;6.78;4.63;;;;;;;-0.26;100.00;94944.19;4957520;28;20372;-77
2022/01/21 14:22:56;;;;;;;7.25;4.82;;;;;;;-0.40;100.00;94934.97;4970518;28;20124;-76
2022/01/21 14:25:34;;;;;;;7.88;5.18;;;;;;;-0.31;100.00;94943.69;4939073;28;20043;-77
2022/01/21 14:27:59;;;;;;;7.85;5.38;;;;;;;-0.35;100.00;94930.34;4937315;28;21547;-77
2022/01/21 14:30:26;;;;;;;6.28;4.80;;;;;;;-0.41;100.00;94925.69;4941922;28;20041;-76
2022/01/21 14:32:53;;;;;;;6.82;4.57;;;;;;;-0.69;100.00;94934.41;4975865;28;20035;-75
2022/01/21 14:35:30;;;;;;;5.97;3.95;;;;;;;-0.50;100.00;94933.97;4947773;28;20069;-77
2022/01/21 14:38:02;;;;;;;6.18;4.18;;;;;;;-0.46;100.00;94937.94;4960571;28;20484;-76
2022/01/21 14:40:30;;;;;;;7.32;5.03;;;;;;;-0.74;100.00;94933.88;4953129;28;20045;-75
2022/01/21 14:43:14;;;;;;;5.80;4.78;;;;;;;-0.78;100.00;94941.84;4955392;28;20094;-75
2022/01/21 14:45:42;;;;;;;6.40;5.35;;;;;;;-0.52;100.00;94935.00;4957965;28;20853;-74
2022/01/21 14:48:16;;;;;;;8.93;5.72;;;;;;;-0.90;100.00;94912.97;4972061;28;20806;-75
2022/01/21 14:50:42;;;;;;;8.43;6.18;;;;;;;-0.98;100.00;94905.06;4954640;28;20479;-77
2022/01/21 14:53:10;;;;;;;6.45;5.35;;;;;;;-1.14;100.00;94890.03;4941877;28;20031;-76
2022/01/21 14:55:38;;;;;;;5.75;5.10;;;;;;;-1.02;100.00;94915.50;4953015;28;20085;-75
2022/01/21 14:58:25;;;;;;;11.38;7.07;;;;;;;-0.87;100.00;94920.41;4951911;28;20066;-76
2022/01/21 15:00:54;;;;;;;8.35;5.28;;;;;;;-1.03;100.00;94894.41;4943100;28;21938;-76
2022/01/21 15:03:31;;;;;;;12.00;7.75;;;;;;;-0.91;100.00;94924.06;4953048;28;20396;-76
2022/01/21 15:06:18;;;;;;;13.05;8.23;;;;;;;-0.88;100.00;94926.41;4947594;28;20039;-76
2022/01/21 15:08:51;;;;;;;7.97;5.60;;;;;;;-1.06;100.00;94917.47;4964265;28;20034;-76
2022/01/21 15:14:25;;;;;;;8.18;5.70;;;;;;;-1.14;100.00;94925.59;4975374;28;20110;-76
2022/01/21 15:17:07;;;;;;;8.18;6.10;;;;;;;-1.37;100.00;94905.97;4959368;28;20053;-76
2022/01/21 15:19:42;;;;;;;8.60;5.75;;;;;;;-1.43;100.00;94867.47;4951915;28;20049;-77
2022/01/21 15:22:20;;;;;;;9.02;7.00;;;;;;;-1.15;100.00;94906.19;4947942;28;20073;-77
2022/01/21 15:24:46;;;;;;;7.10;6.00;;;;;;;-1.19;100.00;94907.28;4958112;28;20030;-77
2022/01/21 15:27:13;;;;;;;8.65;6.57;;;;;;;-1.35;100.00;94900.81;4939998;28;20186;-77
2022/01/21 15:29:39;;;;;;;7.85;5.03;;;;;;;-1.35;100.00;94926.19;4935655;28;20034;-76
2022/01/21 15:32:05;;;;;;;6.55;5.35;;;;;;;-1.39;100.00;94920.50;4958104;28;20046;-76
2022/01/21 15:34:32;;;;;;;6.93;4.70;;;;;;;-1.45;100.00;94917.53;4942965;28;20043;-78
2022/01/21 15:36:57;;;;;;;9.90;4.93;;;;;;;-1.50;100.00;94920.38;4951915;28;20421;-76
2022/01/21 15:39:23;;;;;;;6.95;5.00;;;;;;;-1.50;100.00;94922.09;4950050;28;20089;-77
2022/01/21 15:41:48;;;;;;;7.80;5.13;;;;;;;-1.55;100.00;94919.88;4945711;28;20047;-78
2022/01/21 15:44:14;;;;;;;7.00;4.10;;;;;;;-1.68;100.00;94917.31;4934682;28;20118;-77
2022/01/21 15:46:40;;;;;;;14.73;5.07;;;;;;;-1.60;100.00;94930.31;4956258;28;20066;-76
2022/01/21 15:49:11;;;;;;;8.70;6.05;;;;;;;-1.54;100.00;94936.69;4953309;28;20042;-76
2022/01/21 15:51:40;;;;;;;16.27;8.20;;;;;;;-1.63;100.00;94917.81;4955129;28;20034;-77
2022/01/21 15:54:06;;;;;;;9.40;5.30;;;;;;;-1.74;100.00;94924.50;4957165;28;20121;-76
2022/01/21 15:56:31;;;;;;;8.80;4.88;;;;;;;-1.66;100.00;94934.97;4931128;28;20058;-75
2022/01/21 15:58:57;;;;;;;8.38;5.28;;;;;;;-1.50;100.00;94932.25;4969063;28;20039;-76
2022/01/21 16:01:23;;;;;;;7.82;5.60;;;;;;;-1.72;100.00;94933.63;4956638;28;20058;-76
2022/01/21 16:03:50;;;;;;;7.70;6.05;;;;;;;-1.76;100.00;94949.13;4969810;28;20097;-74
2022/01/21 16:06:16;;;;;;;15.10;10.27;;;;;;;-1.97;100.00;94937.81;4952904;28;20125;-76
2022/01/21 16:08:43;;;;;;;9.10;6.47;;;;;;;-1.98;100.00;94919.25;4940763;28;20087;-76
2022/01/21 16:11:08;;;;;;;9.88;6.75;;;;;;;-1.99;100.00;94940.44;4955859;28;20030;-77
2022/01/21 16:13:34;;;;;;;8.88;5.25;;;;;;;-1.99;100.00;94944.72;4956876;28;20596;-76
2022/01/21 16:16:00;;;;;;;7.32;5.32;;;;;;;-2.15;100.00;94934.69;4956413;28;20519;-77
2022/01/21 16:18:26;;;;;;;5.22;4.15;;;;;;;-2.18;100.00;94945.03;4939055;28;20154;-77
2022/01/21 16:20:55;;;;;;;9.25;4.85;;;;;;;-2.23;100.00;94941.97;4936750;28;20040;-78
2022/01/21 16:23:20;;;;;;;10.82;5.43;;;;;;;-2.50;100.00;94948.72;4957100;28;20073;-77
2022/01/21 16:25:46;;;;;;;11.68;6.25;;;;;;;-2.41;100.00;94948.97;4950690;28;20109;-77
2022/01/21 16:28:12;;;;;;;6.32;4.40;;;;;;;-2.48;100.00;94946.91;4936256;28;20023;-77
2022/01/21 16:30:37;;;;;;;8.60;5.90;;;;;;;-2.63;100.00;94933.44;4955386;28;20033;-77
2022/01/21 16:33:03;;;;;;;11.48;5.45;;;;;;;-2.55;100.00;94938.06;4957374;28;20416;-78
2022/01/21 16:35:28;;;;;;;10.43;6.13;;;;;;;-2.61;100.00;94929.09;4944584;28;20034;-78
2022/01/21 16:37:54;;;;;;;11.68;5.50;;;;;;;-2.71;100.00;94959.25;4978876;28;20023;-79
2022/01/21 16:40:20;;;;;;;8.48;5.63;;;;;;;-2.79;100.00;94974.06;4995262;28;20078;-80
2022/01/21 16:42:47;;;;;;;11.93;7.45;;;;;;;-3.17;100.00;94929.94;4966197;28;20038;-78
2022/01/21 16:45:14;;;;;;;13.45;8.95;;;;;;;-3.47;100.00;94917.34;4976912;28;20113;-80
2022/01/21 16:47:43;;;;;;;17.52;9.40;;;;;;;-3.49;100.00;94928.44;4942747;28;20034;-79
2022/01/21 16:50:09;;;;;;;27.48;13.60;;;;;;;-3.23;100.00;94950.53;4990420;28;20027;-80
2022/01/21 16:52:35;;;;;;;24.20;15.45;;;;;;;-3.45;100.00;94912.19;4981463;28;20030;-81
2022/01/21 16:55:01;;;;;;;21.05;12.13;;;;;;;-3.08;100.00;94980.03;5004415;28;20055;-81